sensor_id;sensor_type;location;lat;lon;timestamp;temperature;humidity
25192;DHT22;13143;50.924;5.320;2022-11-24T00:01:15;10.10;99.90
25192;DHT22;13143;50.924;5.320;2022-11-24T00:03:50;10.10;99.90
25192;DHT22;13143;50.924;5.320;2022-11-24T00:06:17;10.00;99.90
25192;DHT22;13143;50.924;5.320;2022-11-24T00:08:44;10.10;99.90
25192;DHT22;13143;50.924;5.320;2022-11-24T00:11:13;10.00;99.90
25192;DHT22;13143;50.924;5.320;2022-11-24T00:13:40;10.00;99.90
25192;DHT22;13143;50.924;5.320;2022-11-24T00:18:35;10.00;99.90
25192;DHT22;13143;50.924;5.320;2022-11-24T00:21:01;10.00;99.90
25192;DHT22;13143;50.924;5.320;2022-11-24T00:23:27;10.00;99.90
25192;DHT22;13143;50.924;5.320;2022-11-24T00:25:52;10.00;99.90
25192;DHT22;13143;50.924;5.320;2022-11-24T00:28:18;10.00;99.90
25192;DHT22;13143;50.924;5.320;2022-11-24T00:30:43;10.00;99.90
25192;DHT22;13143;50.924;5.320;2022-11-24T00:33:09;10.00;99.90
25192;DHT22;13143;50.924;5.320;2022-11-24T00:35:35;10.00;99.90
25192;DHT22;13143;50.924;5.320;2022-11-24T00:38:00;10.00;99.90
25192;DHT22;13143;50.924;5.320;2022-11-24T00:40:26;10.00;99.90
25192;DHT22;13143;50.924;5.320;2022-11-24T00:42:51;10.00;99.90
25192;DHT22;13143;50.924;5.320;2022-11-24T00:45:17;10.00;99.90
25192;DHT22;13143;50.924;5.320;2022-11-24T00:47:42;10.00;99.90
25192;DHT22;13143;50.924;5.320;2022-11-24T00:50:08;10.10;99.90
25192;DHT22;13143;50.924;5.320;2022-11-24T00:52:34;10.10;99.90
25192;DHT22;13143;50.924;5.320;2022-11-24T00:55:00;10.10;99.90
25192;DHT22;13143;50.924;5.320;2022-11-24T00:57:25;10.00;99.90
25192;DHT22;13143;50.924;5.320;2022-11-24T00:59:51;10.10;99.90
25192;DHT22;13143;50.924;5.320;2022-11-24T01:02:16;10.00;99.90
25192;DHT22;13143;50.924;5.320;2022-11-24T01:04:42;10.10;99.90
25192;DHT22;13143;50.924;5.320;2022-11-24T01:07:07;10.10;99.90
25192;DHT22;13143;50.924;5.320;2022-11-24T01:09:33;10.10;99.90
25192;DHT22;13143;50.924;5.320;2022-11-24T01:11:59;10.10;99.90
25192;DHT22;13143;50.924;5.320;2022-11-24T01:14:29;10.00;99.90
25192;DHT22;13143;50.924;5.320;2022-11-24T01:16:55;10.10;99.90
25192;DHT22;13143;50.924;5.320;2022-11-24T01:19:22;10.10;99.90
25192;DHT22;13143;50.924;5.320;2022-11-24T01:21:48;10.10;99.90
25192;DHT22;13143;50.924;5.320;2022-11-24T01:24:14;10.10;99.90
25192;DHT22;13143;50.924;5.320;2022-11-24T01:26:40;10.10;99.90
25192;DHT22;13143;50.924;5.320;2022-11-24T01:29:06;10.10;99.90
25192;DHT22;13143;50.924;5.320;2022-11-24T01:31:32;10.10;99.90
25192;DHT22;13143;50.924;5.320;2022-11-24T01:33:57;10.10;99.90
25192;DHT22;13143;50.924;5.320;2022-11-24T01:36:23;10.00;99.90
25192;DHT22;13143;50.924;5.320;2022-11-24T01:38:49;10.10;99.90
25192;DHT22;13143;50.924;5.320;2022-11-24T01:41:18;10.10;99.90
25192;DHT22;13143;50.924;5.320;2022-11-24T01:43:44;10.10;99.90
25192;DHT22;13143;50.924;5.320;2022-11-24T01:46:29;10.10;99.90
25192;DHT22;13143;50.924;5.320;2022-11-24T01:49:01;10.10;99.90
25192;DHT22;13143;50.924;5.320;2022-11-24T01:51:29;10.10;99.90
25192;DHT22;13143;50.924;5.320;2022-11-24T01:54:02;10.10;99.90
25192;DHT22;13143;50.924;5.320;2022-11-24T01:56:29;10.10;99.90
25192;DHT22;13143;50.924;5.320;2022-11-24T01:58:58;10.10;99.90
25192;DHT22;13143;50.924;5.320;2022-11-24T02:01:25;10.10;99.90
25192;DHT22;13143;50.924;5.320;2022-11-24T02:03:51;10.10;99.90
25192;DHT22;13143;50.924;5.320;2022-11-24T02:06:22;10.10;99.90
25192;DHT22;13143;50.924;5.320;2022-11-24T02:09:05;10.10;99.90
25192;DHT22;13143;50.924;5.320;2022-11-24T02:11:35;10.10;99.90
25192;DHT22;13143;50.924;5.320;2022-11-24T02:14:04;10.00;99.90
25192;DHT22;13143;50.924;5.320;2022-11-24T02:16:31;10.10;99.90
25192;DHT22;13143;50.924;5.320;2022-11-24T02:18:58;10.10;99.90
25192;DHT22;13143;50.924;5.320;2022-11-24T02:21:24;10.10;99.90
25192;DHT22;13143;50.924;5.320;2022-11-24T02:23:57;10.10;99.90
25192;DHT22;13143;50.924;5.320;2022-11-24T02:26:46;10.10;99.90
25192;DHT22;13143;50.924;5.320;2022-11-24T02:29:13;10.00;99.90
25192;DHT22;13143;50.924;5.320;2022-11-24T02:31:43;10.10;99.90
25192;DHT22;13143;50.924;5.320;2022-11-24T02:34:09;10.00;99.90
25192;DHT22;13143;50.924;5.320;2022-11-24T02:36:35;10.10;99.90
25192;DHT22;13143;50.924;5.320;2022-11-24T02:39:01;10.10;99.90
25192;DHT22;13143;50.924;5.320;2022-11-24T02:41:26;10.10;99.90
25192;DHT22;13143;50.924;5.320;2022-11-24T02:43:58;10.10;99.90
25192;DHT22;13143;50.924;5.320;2022-11-24T02:46:25;10.10;99.90
25192;DHT22;13143;50.924;5.320;2022-11-24T02:48:50;10.10;99.90
25192;DHT22;13143;50.924;5.320;2022-11-24T02:51:16;10.10;99.90
25192;DHT22;13143;50.924;5.320;2022-11-24T02:53:42;10.10;99.90
25192;DHT22;13143;50.924;5.320;2022-11-24T02:56:08;10.10;99.90
25192;DHT22;13143;50.924;5.320;2022-11-24T02:58:33;10.10;99.90
25192;DHT22;13143;50.924;5.320;2022-11-24T03:00:59;10.10;99.90
25192;DHT22;13143;50.924;5.320;2022-11-24T03:03:25;10.10;99.90
25192;DHT22;13143;50.924;5.320;2022-11-24T03:05:51;10.10;99.90
25192;DHT22;13143;50.924;5.320;2022-11-24T03:08:17;10.00;99.90
25192;DHT22;13143;50.924;5.320;2022-11-24T03:10:43;10.10;99.90
25192;DHT22;13143;50.924;5.320;2022-11-24T03:13:09;10.10;99.90
25192;DHT22;13143;50.924;5.320;2022-11-24T03:15:35;10.10;99.90
25192;DHT22;13143;50.924;5.320;2022-11-24T03:18:00;10.10;99.90
25192;DHT22;13143;50.924;5.320;2022-11-24T03:20:26;10.00;99.90
25192;DHT22;13143;50.924;5.320;2022-11-24T03:22:52;10.10;99.90
25192;DHT22;13143;50.924;5.320;2022-11-24T03:25:18;10.10;99.90
25192;DHT22;13143;50.924;5.320;2022-11-24T03:27:44;10.10;99.90
25192;DHT22;13143;50.924;5.320;2022-11-24T03:30:10;10.00;99.90
25192;DHT22;13143;50.924;5.320;2022-11-24T03:32:36;10.10;99.90
25192;DHT22;13143;50.924;5.320;2022-11-24T03:35:02;10.10;99.90
25192;DHT22;13143;50.924;5.320;2022-11-24T03:37:28;10.10;99.90
25192;DHT22;13143;50.924;5.320;2022-11-24T03:39:54;10.10;99.90
25192;DHT22;13143;50.924;5.320;2022-11-24T03:42:19;10.10;99.90
25192;DHT22;13143;50.924;5.320;2022-11-24T03:44:45;10.10;99.90
25192;DHT22;13143;50.924;5.320;2022-11-24T03:47:10;10.10;99.90
25192;DHT22;13143;50.924;5.320;2022-11-24T03:49:37;10.10;99.90
25192;DHT22;13143;50.924;5.320;2022-11-24T03:52:03;10.10;99.90
25192;DHT22;13143;50.924;5.320;2022-11-24T03:54:29;10.10;99.90
25192;DHT22;13143;50.924;5.320;2022-11-24T03:56:54;10.10;99.90
25192;DHT22;13143;50.924;5.320;2022-11-24T03:59:20;10.10;99.90
25192;DHT22;13143;50.924;5.320;2022-11-24T04:01:46;10.10;99.90
25192;DHT22;13143;50.924;5.320;2022-11-24T04:04:12;10.10;99.90
25192;DHT22;13143;50.924;5.320;2022-11-24T04:06:38;10.20;99.90
25192;DHT22;13143;50.924;5.320;2022-11-24T04:09:04;10.20;99.90
25192;DHT22;13143;50.924;5.320;2022-11-24T04:11:30;10.20;99.90
25192;DHT22;13143;50.924;5.320;2022-11-24T04:14:14;10.20;99.90
25192;DHT22;13143;50.924;5.320;2022-11-24T04:16:40;10.20;99.90
25192;DHT22;13143;50.924;5.320;2022-11-24T04:19:06;10.20;99.90
25192;DHT22;13143;50.924;5.320;2022-11-24T04:21:31;10.20;99.90
25192;DHT22;13143;50.924;5.320;2022-11-24T04:23:57;10.20;99.90
25192;DHT22;13143;50.924;5.320;2022-11-24T04:26:23;10.20;99.90
25192;DHT22;13143;50.924;5.320;2022-11-24T04:28:48;10.20;99.90
25192;DHT22;13143;50.924;5.320;2022-11-24T04:31:14;10.30;99.90
25192;DHT22;13143;50.924;5.320;2022-11-24T04:33:39;10.30;99.90
25192;DHT22;13143;50.924;5.320;2022-11-24T04:36:05;10.30;99.90
25192;DHT22;13143;50.924;5.320;2022-11-24T04:38:31;10.30;99.90
25192;DHT22;13143;50.924;5.320;2022-11-24T04:41:01;10.30;99.90
25192;DHT22;13143;50.924;5.320;2022-11-24T04:43:27;10.30;99.90
25192;DHT22;13143;50.924;5.320;2022-11-24T04:45:53;10.30;99.90
25192;DHT22;13143;50.924;5.320;2022-11-24T04:48:19;10.20;99.90
25192;DHT22;13143;50.924;5.320;2022-11-24T04:50:45;10.30;99.90
25192;DHT22;13143;50.924;5.320;2022-11-24T04:53:11;10.30;99.90
25192;DHT22;13143;50.924;5.320;2022-11-24T04:55:38;10.30;99.90
25192;DHT22;13143;50.924;5.320;2022-11-24T04:58:07;10.30;99.90
25192;DHT22;13143;50.924;5.320;2022-11-24T05:00:33;10.30;99.90
25192;DHT22;13143;50.924;5.320;2022-11-24T05:02:58;10.30;99.90
25192;DHT22;13143;50.924;5.320;2022-11-24T05:05:24;10.30;99.90
25192;DHT22;13143;50.924;5.320;2022-11-24T05:07:49;10.30;99.90
25192;DHT22;13143;50.924;5.320;2022-11-24T05:10:15;10.30;99.90
25192;DHT22;13143;50.924;5.320;2022-11-24T05:12:59;10.30;99.90
25192;DHT22;13143;50.924;5.320;2022-11-24T05:15:26;10.30;99.90
25192;DHT22;13143;50.924;5.320;2022-11-24T05:17:52;10.30;99.90
25192;DHT22;13143;50.924;5.320;2022-11-24T05:20:17;10.30;99.90
25192;DHT22;13143;50.924;5.320;2022-11-24T05:22:43;10.30;99.90
25192;DHT22;13143;50.924;5.320;2022-11-24T05:25:09;10.30;99.90
25192;DHT22;13143;50.924;5.320;2022-11-24T05:27:35;10.30;99.90
25192;DHT22;13143;50.924;5.320;2022-11-24T05:30:01;10.30;99.90
25192;DHT22;13143;50.924;5.320;2022-11-24T05:32:27;10.30;99.90
25192;DHT22;13143;50.924;5.320;2022-11-24T05:34:52;10.30;99.90
25192;DHT22;13143;50.924;5.320;2022-11-24T05:37:19;10.30;99.90
25192;DHT22;13143;50.924;5.320;2022-11-24T05:39:45;10.30;99.90
25192;DHT22;13143;50.924;5.320;2022-11-24T05:42:10;10.30;99.90
25192;DHT22;13143;50.924;5.320;2022-11-24T05:44:54;10.30;99.90
25192;DHT22;13143;50.924;5.320;2022-11-24T05:47:21;10.30;99.90
25192;DHT22;13143;50.924;5.320;2022-11-24T05:49:47;10.20;99.90
25192;DHT22;13143;50.924;5.320;2022-11-24T05:52:13;10.20;99.90
25192;DHT22;13143;50.924;5.320;2022-11-24T05:54:39;10.20;99.90
25192;DHT22;13143;50.924;5.320;2022-11-24T05:57:04;10.20;99.90
25192;DHT22;13143;50.924;5.320;2022-11-24T05:59:30;10.20;99.90
25192;DHT22;13143;50.924;5.320;2022-11-24T06:01:55;10.20;99.90
25192;DHT22;13143;50.924;5.320;2022-11-24T06:04:21;10.20;99.90
25192;DHT22;13143;50.924;5.320;2022-11-24T06:06:47;10.20;99.90
25192;DHT22;13143;50.924;5.320;2022-11-24T06:09:12;10.20;99.90
25192;DHT22;13143;50.924;5.320;2022-11-24T06:11:41;10.10;99.90
25192;DHT22;13143;50.924;5.320;2022-11-24T06:14:09;10.20;99.90
25192;DHT22;13143;50.924;5.320;2022-11-24T06:16:34;10.10;99.90
25192;DHT22;13143;50.924;5.320;2022-11-24T06:19:00;10.10;99.90
25192;DHT22;13143;50.924;5.320;2022-11-24T06:21:27;10.10;99.90
25192;DHT22;13143;50.924;5.320;2022-11-24T06:23:52;10.10;99.90
25192;DHT22;13143;50.924;5.320;2022-11-24T06:26:18;10.10;99.90
25192;DHT22;13143;50.924;5.320;2022-11-24T06:28:43;10.10;99.90
25192;DHT22;13143;50.924;5.320;2022-11-24T06:31:09;10.10;99.90
25192;DHT22;13143;50.924;5.320;2022-11-24T06:33:36;10.10;99.90
25192;DHT22;13143;50.924;5.320;2022-11-24T06:36:06;10.10;99.90
25192;DHT22;13143;50.924;5.320;2022-11-24T06:38:33;10.00;99.90
25192;DHT22;13143;50.924;5.320;2022-11-24T06:41:08;10.10;99.90
25192;DHT22;13143;50.924;5.320;2022-11-24T06:43:35;10.00;99.90
25192;DHT22;13143;50.924;5.320;2022-11-24T06:46:02;10.00;99.90
25192;DHT22;13143;50.924;5.320;2022-11-24T06:48:28;10.00;99.90
25192;DHT22;13143;50.924;5.320;2022-11-24T06:50:58;10.00;99.90
25192;DHT22;13143;50.924;5.320;2022-11-24T06:53:24;10.00;99.90
25192;DHT22;13143;50.924;5.320;2022-11-24T06:55:50;10.00;99.90
25192;DHT22;13143;50.924;5.320;2022-11-24T06:58:16;10.00;99.90
25192;DHT22;13143;50.924;5.320;2022-11-24T07:00:42;10.00;99.90
25192;DHT22;13143;50.924;5.320;2022-11-24T07:03:14;10.00;99.90
25192;DHT22;13143;50.924;5.320;2022-11-24T07:05:40;9.90;99.90
25192;DHT22;13143;50.924;5.320;2022-11-24T07:08:06;9.90;99.90
25192;DHT22;13143;50.924;5.320;2022-11-24T07:10:32;9.90;99.90
25192;DHT22;13143;50.924;5.320;2022-11-24T07:12:57;9.90;99.90
25192;DHT22;13143;50.924;5.320;2022-11-24T07:15:23;9.90;99.90
25192;DHT22;13143;50.924;5.320;2022-11-24T07:17:49;9.90;99.90
25192;DHT22;13143;50.924;5.320;2022-11-24T07:20:15;9.90;99.90
25192;DHT22;13143;50.924;5.320;2022-11-24T07:22:40;9.90;99.90
25192;DHT22;13143;50.924;5.320;2022-11-24T07:25:06;9.90;99.90
25192;DHT22;13143;50.924;5.320;2022-11-24T07:27:34;9.90;99.90
25192;DHT22;13143;50.924;5.320;2022-11-24T07:30:00;9.90;99.90
25192;DHT22;13143;50.924;5.320;2022-11-24T07:32:25;9.90;99.90
25192;DHT22;13143;50.924;5.320;2022-11-24T07:34:51;9.90;99.90
25192;DHT22;13143;50.924;5.320;2022-11-24T07:37:17;9.90;99.90
25192;DHT22;13143;50.924;5.320;2022-11-24T07:39:43;9.90;99.90
25192;DHT22;13143;50.924;5.320;2022-11-24T07:42:08;9.90;99.90
25192;DHT22;13143;50.924;5.320;2022-11-24T07:44:35;9.90;99.90
25192;DHT22;13143;50.924;5.320;2022-11-24T07:47:01;9.90;99.90
25192;DHT22;13143;50.924;5.320;2022-11-24T07:49:27;9.80;99.90
25192;DHT22;13143;50.924;5.320;2022-11-24T07:51:52;9.90;99.90
25192;DHT22;13143;50.924;5.320;2022-11-24T07:54:18;9.80;99.90
25192;DHT22;13143;50.924;5.320;2022-11-24T07:56:47;9.90;99.90
25192;DHT22;13143;50.924;5.320;2022-11-24T07:59:13;9.80;99.90
25192;DHT22;13143;50.924;5.320;2022-11-24T08:01:39;9.90;99.90
25192;DHT22;13143;50.924;5.320;2022-11-24T08:04:05;9.90;99.90
25192;DHT22;13143;50.924;5.320;2022-11-24T08:06:30;9.80;99.90
25192;DHT22;13143;50.924;5.320;2022-11-24T08:08:56;9.80;99.90
25192;DHT22;13143;50.924;5.320;2022-11-24T08:11:23;9.80;99.90
25192;DHT22;13143;50.924;5.320;2022-11-24T08:13:48;9.90;99.90
25192;DHT22;13143;50.924;5.320;2022-11-24T08:16:16;9.80;99.90
25192;DHT22;13143;50.924;5.320;2022-11-24T08:18:47;9.80;99.90
25192;DHT22;13143;50.924;5.320;2022-11-24T08:21:13;9.80;99.90
25192;DHT22;13143;50.924;5.320;2022-11-24T08:23:39;9.80;99.90
25192;DHT22;13143;50.924;5.320;2022-11-24T08:26:06;9.80;99.90
25192;DHT22;13143;50.924;5.320;2022-11-24T08:28:34;9.80;99.90
25192;DHT22;13143;50.924;5.320;2022-11-24T08:31:01;9.80;99.90
25192;DHT22;13143;50.924;5.320;2022-11-24T08:33:27;9.80;99.90
25192;DHT22;13143;50.924;5.320;2022-11-24T08:35:53;9.90;99.90
25192;DHT22;13143;50.924;5.320;2022-11-24T08:38:19;9.80;99.90
25192;DHT22;13143;50.924;5.320;2022-11-24T08:40:44;9.90;99.90
25192;DHT22;13143;50.924;5.320;2022-11-24T08:43:10;9.90;99.90
25192;DHT22;13143;50.924;5.320;2022-11-24T08:45:35;9.80;99.90
25192;DHT22;13143;50.924;5.320;2022-11-24T08:48:02;9.80;99.90
25192;DHT22;13143;50.924;5.320;2022-11-24T08:50:27;9.90;99.90
25192;DHT22;13143;50.924;5.320;2022-11-24T08:52:53;9.90;99.90
25192;DHT22;13143;50.924;5.320;2022-11-24T08:55:19;9.90;99.90
25192;DHT22;13143;50.924;5.320;2022-11-24T08:57:44;9.90;99.90
25192;DHT22;13143;50.924;5.320;2022-11-24T09:00:11;9.90;99.90
25192;DHT22;13143;50.924;5.320;2022-11-24T09:02:37;9.90;99.90
25192;DHT22;13143;50.924;5.320;2022-11-24T09:05:03;9.90;99.90
25192;DHT22;13143;50.924;5.320;2022-11-24T09:07:29;9.90;99.90
25192;DHT22;13143;50.924;5.320;2022-11-24T09:09:55;9.90;99.90
25192;DHT22;13143;50.924;5.320;2022-11-24T09:12:20;9.90;99.90
25192;DHT22;13143;50.924;5.320;2022-11-24T09:14:46;9.90;99.90
25192;DHT22;13143;50.924;5.320;2022-11-24T09:17:12;9.90;99.90
25192;DHT22;13143;50.924;5.320;2022-11-24T09:19:38;9.90;99.90
25192;DHT22;13143;50.924;5.320;2022-11-24T09:22:03;9.90;99.90
25192;DHT22;13143;50.924;5.320;2022-11-24T09:24:29;10.00;99.90
25192;DHT22;13143;50.924;5.320;2022-11-24T09:26:54;10.00;99.90
25192;DHT22;13143;50.924;5.320;2022-11-24T09:29:21;9.90;99.90
25192;DHT22;13143;50.924;5.320;2022-11-24T09:31:47;10.00;99.90
25192;DHT22;13143;50.924;5.320;2022-11-24T09:34:14;10.00;99.90
25192;DHT22;13143;50.924;5.320;2022-11-24T09:36:40;10.00;99.90
25192;DHT22;13143;50.924;5.320;2022-11-24T09:39:06;10.00;99.90
25192;DHT22;13143;50.924;5.320;2022-11-24T09:50:31;10.10;99.90
25192;DHT22;13143;50.924;5.320;2022-11-24T09:55:53;10.10;99.90
25192;DHT22;13143;50.924;5.320;2022-11-24T10:00:58;10.10;99.90
25192;DHT22;13143;50.924;5.320;2022-11-24T10:03:31;10.10;99.90
25192;DHT22;13143;50.924;5.320;2022-11-24T10:05:59;10.20;99.90
25192;DHT22;13143;50.924;5.320;2022-11-24T10:11:15;10.20;99.90
25192;DHT22;13143;50.924;5.320;2022-11-24T10:14:09;10.20;99.90
25192;DHT22;13143;50.924;5.320;2022-11-24T10:16:52;10.20;99.90
25192;DHT22;13143;50.924;5.320;2022-11-24T10:25:07;10.30;99.90
25192;DHT22;13143;50.924;5.320;2022-11-24T10:27:40;10.30;99.90
25192;DHT22;13143;50.924;5.320;2022-11-24T10:30:16;10.30;99.90
25192;DHT22;13143;50.924;5.320;2022-11-24T10:32:48;10.30;99.90
25192;DHT22;13143;50.924;5.320;2022-11-24T10:35:26;10.40;99.90
25192;DHT22;13143;50.924;5.320;2022-11-24T10:40:55;10.40;99.90
25192;DHT22;13143;50.924;5.320;2022-11-24T10:43:21;10.40;99.90
25192;DHT22;13143;50.924;5.320;2022-11-24T10:45:47;10.40;99.90
25192;DHT22;13143;50.924;5.320;2022-11-24T10:48:26;10.40;99.90
25192;DHT22;13143;50.924;5.320;2022-11-24T10:51:00;10.40;99.90
25192;DHT22;13143;50.924;5.320;2022-11-24T10:53:33;10.40;99.90
25192;DHT22;13143;50.924;5.320;2022-11-24T10:56:02;10.50;99.90
25192;DHT22;13143;50.924;5.320;2022-11-24T10:58:36;10.50;99.90
25192;DHT22;13143;50.924;5.320;2022-11-24T11:01:19;10.50;99.90
25192;DHT22;13143;50.924;5.320;2022-11-24T11:03:48;10.60;99.90
25192;DHT22;13143;50.924;5.320;2022-11-24T11:06:21;10.60;99.90
25192;DHT22;13143;50.924;5.320;2022-11-24T11:08:47;10.60;99.90
25192;DHT22;13143;50.924;5.320;2022-11-24T11:11:28;10.60;99.90
25192;DHT22;13143;50.924;5.320;2022-11-24T11:13:56;10.60;99.90
25192;DHT22;13143;50.924;5.320;2022-11-24T11:16:51;10.60;99.90
25192;DHT22;13143;50.924;5.320;2022-11-24T11:19:36;10.70;99.90
25192;DHT22;13143;50.924;5.320;2022-11-24T11:24:37;10.70;99.90
25192;DHT22;13143;50.924;5.320;2022-11-24T11:27:18;10.80;99.90
25192;DHT22;13143;50.924;5.320;2022-11-24T11:29:44;10.80;99.90
25192;DHT22;13143;50.924;5.320;2022-11-24T11:32:22;10.80;99.90
25192;DHT22;13143;50.924;5.320;2022-11-24T11:34:50;10.80;99.90
25192;DHT22;13143;50.924;5.320;2022-11-24T11:37:17;10.90;99.90
25192;DHT22;13143;50.924;5.320;2022-11-24T11:39:52;10.90;99.90
25192;DHT22;13143;50.924;5.320;2022-11-24T11:47:41;10.90;99.90
25192;DHT22;13143;50.924;5.320;2022-11-24T11:50:12;11.00;99.90
25192;DHT22;13143;50.924;5.320;2022-11-24T11:52:59;11.00;99.90
25192;DHT22;13143;50.924;5.320;2022-11-24T11:55:35;11.00;99.90
25192;DHT22;13143;50.924;5.320;2022-11-24T12:01:08;11.10;99.90
25192;DHT22;13143;50.924;5.320;2022-11-24T12:03:44;11.10;99.90
25192;DHT22;13143;50.924;5.320;2022-11-24T12:06:31;11.10;99.90
25192;DHT22;13143;50.924;5.320;2022-11-24T12:21:00;11.20;99.90
25192;DHT22;13143;50.924;5.320;2022-11-24T12:26:49;11.30;99.90
25192;DHT22;13143;50.924;5.320;2022-11-24T12:37:38;11.30;99.90
25192;DHT22;13143;50.924;5.320;2022-11-24T12:45:14;11.40;99.90
25192;DHT22;13143;50.924;5.320;2022-11-24T12:55:17;11.50;99.90
25192;DHT22;13143;50.924;5.320;2022-11-24T13:00:28;11.50;99.90
25192;DHT22;13143;50.924;5.320;2022-11-24T13:03:25;11.50;99.90
25192;DHT22;13143;50.924;5.320;2022-11-24T13:09:09;11.60;99.90
25192;DHT22;13143;50.924;5.320;2022-11-24T13:11:45;11.60;99.90
25192;DHT22;13143;50.924;5.320;2022-11-24T13:14:19;11.60;99.90
25192;DHT22;13143;50.924;5.320;2022-11-24T13:16:54;11.60;99.90
25192;DHT22;13143;50.924;5.320;2022-11-24T13:19:23;11.70;99.90
25192;DHT22;13143;50.924;5.320;2022-11-24T13:21:55;11.60;99.90
25192;DHT22;13143;50.924;5.320;2022-11-24T13:24:26;11.70;99.90
25192;DHT22;13143;50.924;5.320;2022-11-24T13:29:44;11.70;99.90
25192;DHT22;13143;50.924;5.320;2022-11-24T13:39:52;11.80;99.90
25192;DHT22;13143;50.924;5.320;2022-11-24T13:42:19;11.80;99.90
25192;DHT22;13143;50.924;5.320;2022-11-24T13:44:45;11.80;99.90
25192;DHT22;13143;50.924;5.320;2022-11-24T13:49:55;11.90;99.90
25192;DHT22;13143;50.924;5.320;2022-11-24T13:55:24;11.90;99.90
25192;DHT22;13143;50.924;5.320;2022-11-24T13:57:55;11.90;99.90
25192;DHT22;13143;50.924;5.320;2022-11-24T14:00:27;11.90;99.90
25192;DHT22;13143;50.924;5.320;2022-11-24T14:03:01;11.90;99.90
25192;DHT22;13143;50.924;5.320;2022-11-24T14:05:35;12.00;99.90
25192;DHT22;13143;50.924;5.320;2022-11-24T14:08:01;12.00;99.90
25192;DHT22;13143;50.924;5.320;2022-11-24T14:10:33;12.00;99.90
25192;DHT22;13143;50.924;5.320;2022-11-24T14:16:12;12.00;99.90
25192;DHT22;13143;50.924;5.320;2022-11-24T14:18:41;12.00;99.90
25192;DHT22;13143;50.924;5.320;2022-11-24T14:21:21;12.00;99.90
25192;DHT22;13143;50.924;5.320;2022-11-24T14:23:53;12.00;99.90
25192;DHT22;13143;50.924;5.320;2022-11-24T14:26:26;12.10;99.90
25192;DHT22;13143;50.924;5.320;2022-11-24T14:29:01;12.00;99.90
25192;DHT22;13143;50.924;5.320;2022-11-24T14:31:27;12.10;99.90
25192;DHT22;13143;50.924;5.320;2022-11-24T14:34:29;12.10;99.90
25192;DHT22;13143;50.924;5.320;2022-11-24T14:36:56;12.00;99.90
25192;DHT22;13143;50.924;5.320;2022-11-24T14:39:24;12.00;99.90
25192;DHT22;13143;50.924;5.320;2022-11-24T14:42:02;12.10;99.90
25192;DHT22;13143;50.924;5.320;2022-11-24T14:44:52;12.00;99.90
25192;DHT22;13143;50.924;5.320;2022-11-24T14:47:34;12.00;99.90
25192;DHT22;13143;50.924;5.320;2022-11-24T14:50:15;12.00;99.90
25192;DHT22;13143;50.924;5.320;2022-11-24T14:52:54;12.00;99.90
25192;DHT22;13143;50.924;5.320;2022-11-24T14:55:28;12.00;99.90
25192;DHT22;13143;50.924;5.320;2022-11-24T14:57:55;12.00;99.90
25192;DHT22;13143;50.924;5.320;2022-11-24T15:02:53;12.00;99.90
25192;DHT22;13143;50.924;5.320;2022-11-24T15:05:23;12.00;99.90
25192;DHT22;13143;50.924;5.320;2022-11-24T15:07:58;12.00;99.90
25192;DHT22;13143;50.924;5.320;2022-11-24T15:10:36;12.00;99.90
25192;DHT22;13143;50.924;5.320;2022-11-24T15:13:15;12.00;99.90
25192;DHT22;13143;50.924;5.320;2022-11-24T15:15:49;12.00;99.90
25192;DHT22;13143;50.924;5.320;2022-11-24T15:18:36;11.90;99.90
25192;DHT22;13143;50.924;5.320;2022-11-24T15:21:03;11.90;99.90
25192;DHT22;13143;50.924;5.320;2022-11-24T15:23:33;11.90;99.90
25192;DHT22;13143;50.924;5.320;2022-11-24T15:28:29;11.90;99.90
25192;DHT22;13143;50.924;5.320;2022-11-24T15:30:59;11.90;99.90
25192;DHT22;13143;50.924;5.320;2022-11-24T15:33:25;11.90;99.90
25192;DHT22;13143;50.924;5.320;2022-11-24T15:35:51;11.90;99.90
25192;DHT22;13143;50.924;5.320;2022-11-24T15:38:17;11.80;99.90
25192;DHT22;13143;50.924;5.320;2022-11-24T15:40:44;11.80;99.90
25192;DHT22;13143;50.924;5.320;2022-11-24T15:45:42;11.80;99.90
25192;DHT22;13143;50.924;5.320;2022-11-24T15:48:07;11.80;99.90
25192;DHT22;13143;50.924;5.320;2022-11-24T15:50:35;11.70;99.90
25192;DHT22;13143;50.924;5.320;2022-11-24T15:53:01;11.70;99.90
25192;DHT22;13143;50.924;5.320;2022-11-24T15:55:27;11.70;99.90
25192;DHT22;13143;50.924;5.320;2022-11-24T15:57:53;11.70;99.90
25192;DHT22;13143;50.924;5.320;2022-11-24T16:00:20;11.60;99.90
25192;DHT22;13143;50.924;5.320;2022-11-24T16:02:46;11.60;99.90
25192;DHT22;13143;50.924;5.320;2022-11-24T16:05:12;11.60;99.90
25192;DHT22;13143;50.924;5.320;2022-11-24T16:07:38;11.50;99.90
25192;DHT22;13143;50.924;5.320;2022-11-24T16:10:07;11.50;99.90
25192;DHT22;13143;50.924;5.320;2022-11-24T16:12:34;11.50;99.90
25192;DHT22;13143;50.924;5.320;2022-11-24T16:15:00;11.50;99.90
25192;DHT22;13143;50.924;5.320;2022-11-24T16:17:26;11.40;99.90
25192;DHT22;13143;50.924;5.320;2022-11-24T16:19:51;11.40;99.90
25192;DHT22;13143;50.924;5.320;2022-11-24T16:22:17;11.40;99.90
25192;DHT22;13143;50.924;5.320;2022-11-24T16:24:42;11.40;99.90
25192;DHT22;13143;50.924;5.320;2022-11-24T16:27:08;11.30;99.90
25192;DHT22;13143;50.924;5.320;2022-11-24T16:29:33;11.30;99.90
25192;DHT22;13143;50.924;5.320;2022-11-24T16:31:59;11.30;99.90
25192;DHT22;13143;50.924;5.320;2022-11-24T16:34:25;11.30;99.90
25192;DHT22;13143;50.924;5.320;2022-11-24T16:36:50;11.30;99.90
25192;DHT22;13143;50.924;5.320;2022-11-24T16:39:16;11.30;99.90
25192;DHT22;13143;50.924;5.320;2022-11-24T16:41:41;11.30;99.90
25192;DHT22;13143;50.924;5.320;2022-11-24T16:44:07;11.30;99.90
25192;DHT22;13143;50.924;5.320;2022-11-24T16:46:33;11.20;99.90
25192;DHT22;13143;50.924;5.320;2022-11-24T16:48:58;11.20;99.90
25192;DHT22;13143;50.924;5.320;2022-11-24T16:51:31;11.20;99.90
25192;DHT22;13143;50.924;5.320;2022-11-24T16:53:58;11.10;99.90
25192;DHT22;13143;50.924;5.320;2022-11-24T16:56:25;11.10;99.90
25192;DHT22;13143;50.924;5.320;2022-11-24T16:58:50;11.10;99.90
25192;DHT22;13143;50.924;5.320;2022-11-24T17:01:16;11.10;99.90
25192;DHT22;13143;50.924;5.320;2022-11-24T17:03:42;11.00;99.90
25192;DHT22;13143;50.924;5.320;2022-11-24T17:06:11;11.00;99.90
25192;DHT22;13143;50.924;5.320;2022-11-24T17:08:39;11.00;99.90
25192;DHT22;13143;50.924;5.320;2022-11-24T17:11:19;11.00;99.90
25192;DHT22;13143;50.924;5.320;2022-11-24T17:13:45;11.00;99.90
25192;DHT22;13143;50.924;5.320;2022-11-24T17:16:13;10.90;99.90
25192;DHT22;13143;50.924;5.320;2022-11-24T17:18:39;10.90;99.90
25192;DHT22;13143;50.924;5.320;2022-11-24T17:21:08;10.90;99.90
25192;DHT22;13143;50.924;5.320;2022-11-24T17:23:35;11.00;99.90
25192;DHT22;13143;50.924;5.320;2022-11-24T17:26:06;10.90;99.90
25192;DHT22;13143;50.924;5.320;2022-11-24T17:28:33;10.90;99.90